createdAt,value
2023-05-15T00:00:10.875Z,12.08
2023-05-15T00:03:32.880Z,12.05
2023-05-15T00:06:54.691Z,12.03
2023-05-15T00:10:17.884Z,12.01
2023-05-15T00:13:39.795Z,11.97
2023-05-15T00:17:01.616Z,11.92
2023-05-15T00:20:23.444Z,11.87
2023-05-15T00:23:45.047Z,11.83
2023-05-15T00:27:08.477Z,11.78
2023-05-15T00:30:30.500Z,11.70
2023-05-15T00:33:52.152Z,11.67
2023-05-15T00:37:13.778Z,11.62
2023-05-15T00:40:37.398Z,11.56
2023-05-15T00:44:02.003Z,11.51
2023-05-15T00:47:25.262Z,11.46
2023-05-15T00:50:46.936Z,11.40
2023-05-15T00:54:09.162Z,11.36
2023-05-15T00:57:32.740Z,11.32
2023-05-15T01:00:56.354Z,11.27
2023-05-15T01:04:18.414Z,11.22
2023-05-15T01:07:49.553Z,11.18
2023-05-15T01:11:13.027Z,11.13
2023-05-15T01:14:34.678Z,11.09
2023-05-15T01:17:58.010Z,11.06
2023-05-15T01:21:42.095Z,11.04
2023-05-15T01:25:37.272Z,11.00
2023-05-15T01:29:06.205Z,10.94
2023-05-15T01:32:34.539Z,10.95
2023-05-15T01:36:00.997Z,10.91
2023-05-15T01:39:29.113Z,10.92
2023-05-15T01:42:55.285Z,10.89
2023-05-15T01:46:21.218Z,10.89
2023-05-15T01:49:46.168Z,10.87
2023-05-15T01:53:10.641Z,10.85
2023-05-15T01:56:33.357Z,10.83
2023-05-15T01:59:56.565Z,10.85
2023-05-15T02:03:20.336Z,10.85
2023-05-15T02:06:42.491Z,10.85
2023-05-15T02:10:05.362Z,10.89
2023-05-15T02:13:28.130Z,10.93
2023-05-15T02:16:50.088Z,10.97
2023-05-15T02:20:14.461Z,10.99
2023-05-15T02:23:36.394Z,11.00
2023-05-15T02:27:05.342Z,11.00
2023-05-15T02:30:39.651Z,11.01
2023-05-15T02:34:09.661Z,11.00
2023-05-15T02:37:36.303Z,10.97
2023-05-15T02:40:59.413Z,10.92
2023-05-15T02:44:21.504Z,10.93
2023-05-15T02:47:44.088Z,10.93
2023-05-15T02:51:06.570Z,11.03
2023-05-15T02:54:29.712Z,11.11
2023-05-15T02:57:51.611Z,11.14
2023-05-15T03:01:13.713Z,11.17
2023-05-15T03:04:35.307Z,11.20
2023-05-15T03:07:58.508Z,11.25
2023-05-15T03:11:21.635Z,11.34
2023-05-15T03:14:43.547Z,11.53
2023-05-15T03:18:05.601Z,11.76
2023-05-15T03:21:27.398Z,11.99
2023-05-15T03:24:49.238Z,12.18
2023-05-15T03:28:12.808Z,12.37
2023-05-15T03:31:35.068Z,12.57
2023-05-15T03:34:56.668Z,12.77
2023-05-15T03:38:18.059Z,12.94
2023-05-15T03:41:40.073Z,13.12
2023-05-15T03:45:03.394Z,13.33
2023-05-15T03:48:25.534Z,13.51
2023-05-15T03:51:47.183Z,13.74
2023-05-15T03:55:09.627Z,13.93
2023-05-15T03:58:32.215Z,14.13
2023-05-15T04:02:04.362Z,14.28
2023-05-15T04:05:27.721Z,14.43
2023-05-15T04:08:50.493Z,14.59
2023-05-15T04:12:12.503Z,14.75
2023-05-15T04:15:34.163Z,14.92
2023-05-15T04:18:57.503Z,15.07
2023-05-15T04:22:19.382Z,15.20
2023-05-15T04:25:42.897Z,15.37
2023-05-15T04:29:05.224Z,15.55
2023-05-15T04:32:27.746Z,15.77
2023-05-15T04:35:50.974Z,15.93
2023-05-15T04:39:13.246Z,16.09
2023-05-15T04:42:35.184Z,16.11
2023-05-15T04:45:57.066Z,16.18
2023-05-15T04:49:18.951Z,16.11
2023-05-15T04:52:43.180Z,16.25
2023-05-15T04:56:05.765Z,16.47
2023-05-15T04:59:28.743Z,16.68
2023-05-15T05:02:51.104Z,16.71
2023-05-15T05:06:12.971Z,16.81
2023-05-15T05:09:36.218Z,16.98
2023-05-15T05:12:58.329Z,17.14
2023-05-15T05:16:20.394Z,17.23
2023-05-15T05:19:42.912Z,17.25
2023-05-15T05:23:04.880Z,17.30
2023-05-15T05:26:28.521Z,17.39
2023-05-15T05:29:50.541Z,17.51
2023-05-15T05:33:12.792Z,17.68
2023-05-15T05:36:34.541Z,17.80
2023-05-15T05:39:56.490Z,17.83
2023-05-15T05:43:20.946Z,17.94
2023-05-15T05:46:42.694Z,18.12
2023-05-15T05:50:04.713Z,18.20
2023-05-15T05:53:26.362Z,18.33
2023-05-15T05:56:50.096Z,18.45
2023-05-15T06:00:15.066Z,18.56
2023-05-15T06:03:37.765Z,18.65
2023-05-15T06:06:59.533Z,18.61
2023-05-15T06:10:21.988Z,18.69
2023-05-15T06:13:44.243Z,18.79
2023-05-15T06:17:07.548Z,18.87
2023-05-15T06:20:29.344Z,18.97
2023-05-15T06:23:51.045Z,19.02
2023-05-15T06:27:15.432Z,19.13
2023-05-15T06:30:37.114Z,19.22
2023-05-15T06:34:00.177Z,19.26
2023-05-15T06:37:22.283Z,19.38
2023-05-15T06:40:43.979Z,19.49
2023-05-15T06:44:06.124Z,19.59
2023-05-15T06:47:28.054Z,19.61
2023-05-15T06:50:51.628Z,19.71
2023-05-15T06:54:13.316Z,19.84
2023-05-15T06:57:35.138Z,19.88
2023-05-15T07:00:57.291Z,19.89
2023-05-15T07:04:21.170Z,20.06
2023-05-15T07:07:44.504Z,20.09
2023-05-15T07:11:06.654Z,20.08
2023-05-15T07:14:28.413Z,20.16
2023-05-15T07:17:50.187Z,20.26
2023-05-15T07:21:11.768Z,20.31
2023-05-15T07:24:34.849Z,20.42
2023-05-15T07:27:56.978Z,20.50
2023-05-15T07:31:19.090Z,20.52
2023-05-15T07:34:41.977Z,20.57
2023-05-15T07:38:03.898Z,20.61
2023-05-15T07:41:27.217Z,20.77
2023-05-15T07:44:49.683Z,20.94
2023-05-15T07:48:15.552Z,21.08
2023-05-15T07:51:37.463Z,21.13
2023-05-15T07:54:59.315Z,21.22
2023-05-15T07:58:23.392Z,21.41
2023-05-15T08:01:45.022Z,21.49
2023-05-15T08:05:07.730Z,21.56
2023-05-15T08:08:29.702Z,21.72
2023-05-15T08:11:51.729Z,21.75
2023-05-15T08:15:15.553Z,21.78
2023-05-15T08:18:37.598Z,21.89
2023-05-15T08:21:59.429Z,22.03
2023-05-15T08:25:21.103Z,22.10
2023-05-15T08:28:43.042Z,22.23
2023-05-15T08:32:07.972Z,22.34
2023-05-15T08:35:29.815Z,22.43
2023-05-15T08:38:51.503Z,22.47
2023-05-15T08:42:19.813Z,22.57
2023-05-15T08:45:42.064Z,22.59
2023-05-15T08:49:15.768Z,22.64
2023-05-15T08:52:37.709Z,22.61
2023-05-15T08:55:59.612Z,22.68
2023-05-15T08:59:21.683Z,22.79
2023-05-15T09:02:44.011Z,22.76
2023-05-15T09:06:08.232Z,22.88
2023-05-15T09:09:31.410Z,22.97
2023-05-15T09:12:54.823Z,23.07
2023-05-15T09:16:16.772Z,23.20
2023-05-15T09:19:40.613Z,23.32
2023-05-15T09:23:05.512Z,23.41
2023-05-15T09:26:27.253Z,23.47
2023-05-15T09:29:52.274Z,23.49
2023-05-15T09:33:18.297Z,23.53
2023-05-15T09:37:19.365Z,23.55
2023-05-15T09:40:53.802Z,23.62
2023-05-15T09:44:38.903Z,23.66
2023-05-15T09:48:15.173Z,23.60
2023-05-15T09:51:37.709Z,23.54
2023-05-15T09:54:59.829Z,23.60
2023-05-15T09:58:23.883Z,23.60
2023-05-15T10:01:48.932Z,23.66
2023-05-15T10:05:14.670Z,23.79
2023-05-15T10:08:38.231Z,23.89
2023-05-15T10:12:01.360Z,23.76
2023-05-15T10:15:25.258Z,23.75
2023-05-15T10:18:49.673Z,23.89
2023-05-15T10:22:12.686Z,24.03
2023-05-15T10:25:41.330Z,24.08
2023-05-15T10:29:06.339Z,24.10
2023-05-15T10:32:30.926Z,24.27
2023-05-15T10:35:54.805Z,24.41
2023-05-15T10:39:18.221Z,24.60
2023-05-15T10:42:43.528Z,24.66
2023-05-15T10:46:06.604Z,24.77
2023-05-15T10:49:29.653Z,24.82
2023-05-15T10:52:53.141Z,24.76
2023-05-15T10:56:16.828Z,24.54
2023-05-15T10:59:38.499Z,24.43
2023-05-15T11:03:01.315Z,24.40
2023-05-15T11:06:32.427Z,24.50
2023-05-15T11:09:54.896Z,24.62
2023-05-15T11:13:16.586Z,24.71
2023-05-15T11:16:59.679Z,24.72
2023-05-15T11:20:21.717Z,24.74
2023-05-15T11:23:48.658Z,24.80
2023-05-15T11:27:17.905Z,24.86
2023-05-15T11:30:41.423Z,25.05
2023-05-15T11:34:07.486Z,25.12
2023-05-15T11:37:31.391Z,25.08
2023-05-15T11:40:57.271Z,25.05
2023-05-15T11:44:22.872Z,25.04
2023-05-15T11:47:45.623Z,25.13
2023-05-15T11:51:16.230Z,25.18
2023-05-15T11:54:38.405Z,25.32
2023-05-15T11:58:01.816Z,25.24
2023-05-15T12:01:23.789Z,25.21
2023-05-15T12:04:45.577Z,25.17
2023-05-15T12:08:11.606Z,25.17
2023-05-15T12:11:33.668Z,25.10
2023-05-15T12:14:59.483Z,24.97
2023-05-15T12:18:21.371Z,24.99
2023-05-15T12:21:55.298Z,25.19
2023-05-15T12:25:17.939Z,25.48
2023-05-15T12:28:40.010Z,25.53
2023-05-15T12:32:04.195Z,25.58
2023-05-15T12:35:25.973Z,25.69
2023-05-15T12:38:47.887Z,25.77
2023-05-15T12:42:10.738Z,25.85
2023-05-15T12:45:33.515Z,25.89
2023-05-15T12:48:59.619Z,25.87
2023-05-15T12:52:23.580Z,25.94
2023-05-15T12:55:47.652Z,25.99
2023-05-15T12:59:09.209Z,25.98
2023-05-15T13:02:33.519Z,25.97
2023-05-15T13:05:56.979Z,25.99
2023-05-15T13:09:23.461Z,25.93
2023-05-15T13:12:46.799Z,25.70
2023-05-15T13:16:19.583Z,25.65
2023-05-15T13:19:41.491Z,25.63
2023-05-15T13:23:05.354Z,25.67
2023-05-15T13:26:27.633Z,25.76
2023-05-15T13:29:51.890Z,25.87
2023-05-15T13:33:14.878Z,25.98
2023-05-15T13:36:36.890Z,26.06
2023-05-15T13:40:00.093Z,26.06
2023-05-15T13:43:23.183Z,25.86
2023-05-15T13:46:46.390Z,25.66
2023-05-15T13:50:10.087Z,25.71
2023-05-15T13:53:31.864Z,25.78
2023-05-15T13:56:55.079Z,25.80
2023-05-15T14:00:18.781Z,25.88
2023-05-15T14:03:40.829Z,25.92
2023-05-15T14:07:02.384Z,26.03
2023-05-15T14:10:24.578Z,26.09
2023-05-15T14:13:48.195Z,26.06
2023-05-15T14:17:10.118Z,25.95
2023-05-15T14:20:31.970Z,25.86
2023-05-15T14:23:53.920Z,25.83
2023-05-15T14:27:18.377Z,25.80
2023-05-15T14:30:41.611Z,25.83
2023-05-15T14:34:03.344Z,25.86
2023-05-15T14:37:25.128Z,25.91
2023-05-15T14:40:47.271Z,25.81
2023-05-15T14:44:08.843Z,25.69
2023-05-15T14:47:36.414Z,25.61
2023-05-15T14:51:00.164Z,25.61
2023-05-15T14:54:23.825Z,25.53
2023-05-15T14:57:50.761Z,25.52
2023-05-15T15:01:13.539Z,25.51
2023-05-15T15:04:41.692Z,25.43
2023-05-15T15:08:08.037Z,25.39
2023-05-15T15:11:33.036Z,25.31
2023-05-15T15:14:59.060Z,25.29
2023-05-15T15:18:22.496Z,25.17
2023-05-15T15:21:48.275Z,25.00
2023-05-15T15:25:11.848Z,24.96
2023-05-15T15:28:35.425Z,24.93
2023-05-15T15:32:05.401Z,24.92
2023-05-15T15:35:31.163Z,24.94
2023-05-15T15:38:56.165Z,25.00
2023-05-15T15:42:19.335Z,24.92
2023-05-15T15:45:42.472Z,24.79
2023-05-15T15:49:09.654Z,24.66
2023-05-15T15:52:34.361Z,24.52
2023-05-15T15:55:58.441Z,24.52
2023-05-15T15:59:22.848Z,24.58
2023-05-15T16:02:47.968Z,24.54
2023-05-15T16:06:15.101Z,24.42
2023-05-15T16:09:38.064Z,24.26
2023-05-15T16:13:01.946Z,24.13
2023-05-15T16:16:25.263Z,24.05
2023-05-15T16:19:48.256Z,23.95
2023-05-15T16:23:11.876Z,23.81
2023-05-15T16:26:34.335Z,23.70
2023-05-15T16:29:57.645Z,23.59
2023-05-15T16:33:20.003Z,23.47
2023-05-15T16:36:42.332Z,23.35
2023-05-15T16:40:04.956Z,23.29
2023-05-15T16:43:26.706Z,23.19
2023-05-15T16:46:49.932Z,23.10
2023-05-15T16:50:13.309Z,23.07
2023-05-15T16:53:35.260Z,23.01
2023-05-15T16:56:59.309Z,22.94
2023-05-15T17:00:21.806Z,22.89
2023-05-15T17:03:45.322Z,22.83
2023-05-15T17:07:07.673Z,22.76
2023-05-15T17:10:32.351Z,22.70
2023-05-15T17:13:54.127Z,22.63
2023-05-15T17:17:15.885Z,22.53
2023-05-15T17:20:39.197Z,22.45
2023-05-15T17:24:01.253Z,22.38
2023-05-15T17:27:25.016Z,22.29
2023-05-15T17:30:51.755Z,22.24
2023-05-15T17:34:15.428Z,22.12
2023-05-15T17:37:41.580Z,22.07
2023-05-15T17:41:04.936Z,22.00
2023-05-15T17:44:29.817Z,21.89
2023-05-15T17:47:52.502Z,21.79
2023-05-15T17:51:14.470Z,21.64
2023-05-15T17:54:37.851Z,21.51
2023-05-15T17:58:00.191Z,21.43
2023-05-15T18:01:22.302Z,21.36
2023-05-15T18:04:44.379Z,21.28
2023-05-15T18:08:06.978Z,21.15
2023-05-15T18:11:30.196Z,21.07
2023-05-15T18:14:52.401Z,20.99
2023-05-15T18:18:14.696Z,20.89
2023-05-15T18:21:38.003Z,20.82
2023-05-15T18:25:01.007Z,20.73
2023-05-15T18:28:24.064Z,20.66
2023-05-15T18:31:46.160Z,20.55
2023-05-15T18:35:08.571Z,20.47
2023-05-15T18:38:30.411Z,20.37
2023-05-15T18:41:52.663Z,20.30
2023-05-15T18:45:16.363Z,20.19
2023-05-15T18:48:37.990Z,20.09
2023-05-15T18:52:00.198Z,20.00
2023-05-15T18:55:22.859Z,19.93
2023-05-15T18:58:45.764Z,19.85
2023-05-15T19:02:10.372Z,19.72
2023-05-15T19:05:33.792Z,19.64
2023-05-15T19:08:55.762Z,19.57
2023-05-15T19:12:17.762Z,19.49
2023-05-15T19:15:39.562Z,19.40
2023-05-15T19:19:02.814Z,19.33
2023-05-15T19:22:24.787Z,19.23
2023-05-15T19:25:46.863Z,19.15
2023-05-15T19:29:08.637Z,19.07
2023-05-15T19:32:30.534Z,19.00
2023-05-15T19:35:53.734Z,18.91
2023-05-15T19:39:15.847Z,18.85
2023-05-15T19:42:37.694Z,18.75
2023-05-15T19:45:59.414Z,18.68
2023-05-15T19:49:21.394Z,18.61
2023-05-15T19:52:45.360Z,18.53
2023-05-15T19:56:07.838Z,18.48
2023-05-15T19:59:30.096Z,18.43
2023-05-15T20:02:51.990Z,18.34
2023-05-15T20:06:13.890Z,18.28
2023-05-15T20:09:39.317Z,18.23
2023-05-15T20:13:01.336Z,18.12
2023-05-15T20:16:23.070Z,18.14
2023-05-15T20:19:45.063Z,18.10
2023-05-15T20:23:07.474Z,18.04
2023-05-15T20:26:30.645Z,17.99
2023-05-15T20:29:52.484Z,17.96
2023-05-15T20:33:14.692Z,17.91
2023-05-15T20:36:38.969Z,17.85
2023-05-15T20:40:01.059Z,17.79
2023-05-15T20:48:11.793Z,17.69
2023-05-15T20:51:33.638Z,17.66
2023-05-15T20:54:55.545Z,17.61
2023-05-15T20:58:17.287Z,17.56
2023-05-15T21:01:39.320Z,17.50
2023-05-15T21:05:02.369Z,17.43
2023-05-15T21:08:24.401Z,17.38
2023-05-15T21:11:47.318Z,17.34
2023-05-15T21:15:11.292Z,17.29
2023-05-15T21:18:34.214Z,17.26
2023-05-15T21:21:57.428Z,17.23
2023-05-15T21:25:20.109Z,17.19
2023-05-15T21:28:41.804Z,17.15
2023-05-15T21:32:03.550Z,17.12
2023-05-15T21:35:25.706Z,17.07
2023-05-15T21:38:48.851Z,17.03
2023-05-15T21:42:10.900Z,17.01
2023-05-15T21:45:33.151Z,17.00
2023-05-15T21:48:54.695Z,16.97
2023-05-15T21:52:16.380Z,16.94
2023-05-15T21:55:39.984Z,16.91
2023-05-15T21:59:01.893Z,16.89
2023-05-15T22:02:23.783Z,16.86
2023-05-15T22:05:46.750Z,16.83
2023-05-15T22:09:08.805Z,16.81
2023-05-15T22:12:32.315Z,16.78
2023-05-15T22:15:54.288Z,16.73
2023-05-15T22:19:25.053Z,16.71
2023-05-15T22:22:53.664Z,16.68
2023-05-15T22:26:15.765Z,16.66
2023-05-15T22:29:38.880Z,16.64
2023-05-15T22:33:00.831Z,16.62
2023-05-15T22:36:22.597Z,16.59
2023-05-15T22:39:44.120Z,16.57
2023-05-15T22:43:05.920Z,16.53
2023-05-15T22:46:29.257Z,16.53
2023-05-15T22:49:51.509Z,16.48
2023-05-15T22:53:16.790Z,16.47
2023-05-15T22:56:38.541Z,16.46
2023-05-15T23:00:00.183Z,16.42
2023-05-15T23:03:23.394Z,16.40
2023-05-15T23:06:45.240Z,16.36
2023-05-15T23:10:08.403Z,16.33
2023-05-15T23:13:30.588Z,16.29
2023-05-15T23:16:52.280Z,16.27
2023-05-15T23:20:15.848Z,16.26
2023-05-15T23:23:37.477Z,16.22
2023-05-15T23:26:59.405Z,16.20
2023-05-15T23:30:21.583Z,16.18
2023-05-15T23:33:43.532Z,16.13
2023-05-15T23:37:07.068Z,16.13
2023-05-15T23:40:28.937Z,16.12
2023-05-15T23:43:51.038Z,16.11
2023-05-15T23:47:12.839Z,16.08
2023-05-15T23:50:34.712Z,16.05
2023-05-15T23:53:57.945Z,16.01
2023-05-15T23:57:19.968Z,15.99
